sensor_id;sensor_type;location;lat;lon;timestamp;pressure;altitude;pressure_sealevel;temperature;humidity
68988;BME280;56038;46.080;11.116;2023-03-12T00:03:25;98288.50;;;11.82;50.02
68988;BME280;56038;46.080;11.116;2023-03-12T00:08:27;98298.59;;;11.74;50.47
68988;BME280;56038;46.080;11.116;2023-03-12T00:13:29;98304.66;;;11.74;50.81
68988;BME280;56038;46.080;11.116;2023-03-12T00:18:32;98303.19;;;11.70;50.90
68988;BME280;56038;46.080;11.116;2023-03-12T00:23:34;98303.19;;;11.70;51.69
68988;BME280;56038;46.080;11.116;2023-03-12T00:28:36;98305.97;;;11.67;52.33
68988;BME280;56038;46.080;11.116;2023-03-12T00:33:39;98317.66;;;11.61;52.76
68988;BME280;56038;46.080;11.116;2023-03-12T00:38:41;98334.38;;;11.59;52.93
68988;BME280;56038;46.080;11.116;2023-03-12T00:43:43;98344.94;;;11.57;53.27
68988;BME280;56038;46.080;11.116;2023-03-12T00:48:46;98348.19;;;11.47;53.80
68988;BME280;56038;46.080;11.116;2023-03-12T00:53:48;98355.09;;;11.48;53.35
68988;BME280;56038;46.080;11.116;2023-03-12T00:58:50;98362.38;;;11.43;53.33
68988;BME280;56038;46.080;11.116;2023-03-12T01:03:53;98363.59;;;11.37;52.86
68988;BME280;56038;46.080;11.116;2023-03-12T01:08:55;98375.97;;;11.19;53.26
68988;BME280;56038;46.080;11.116;2023-03-12T01:13:56;98375.06;;;11.04;53.03
68988;BME280;56038;46.080;11.116;2023-03-12T01:19:02;98371.16;;;10.97;52.70
68988;BME280;56038;46.080;11.116;2023-03-12T01:24:04;98383.38;;;10.97;52.33
68988;BME280;56038;46.080;11.116;2023-03-12T01:29:06;98376.91;;;10.88;52.42
68988;BME280;56038;46.080;11.116;2023-03-12T01:34:10;98385.56;;;10.89;52.46
68988;BME280;56038;46.080;11.116;2023-03-12T01:39:13;98385.34;;;10.77;52.44
68988;BME280;56038;46.080;11.116;2023-03-12T01:44:15;98389.84;;;10.75;52.66
68988;BME280;56038;46.080;11.116;2023-03-12T01:49:22;98395.56;;;10.66;53.13
68988;BME280;56038;46.080;11.116;2023-03-12T01:54:26;98404.59;;;10.61;52.84
68988;BME280;56038;46.080;11.116;2023-03-12T01:59:38;98422.25;;;10.56;52.77
68988;BME280;56038;46.080;11.116;2023-03-12T02:04:44;98432.31;;;10.47;52.93
68988;BME280;56038;46.080;11.116;2023-03-12T02:09:47;98436.25;;;10.39;53.88
68988;BME280;56038;46.080;11.116;2023-03-12T02:14:49;98436.75;;;10.30;53.65
68988;BME280;56038;46.080;11.116;2023-03-12T02:19:59;98441.13;;;10.29;54.32
68988;BME280;56038;46.080;11.116;2023-03-12T02:25:20;98453.34;;;10.29;55.83
68988;BME280;56038;46.080;11.116;2023-03-12T02:30:29;98459.84;;;10.20;54.38
68988;BME280;56038;46.080;11.116;2023-03-12T02:35:31;98461.69;;;10.18;54.40
68988;BME280;56038;46.080;11.116;2023-03-12T02:40:38;98475.94;;;10.12;55.11
68988;BME280;56038;46.080;11.116;2023-03-12T02:45:41;98474.66;;;10.19;54.71
68988;BME280;56038;46.080;11.116;2023-03-12T02:50:43;98483.66;;;10.31;53.84
68988;BME280;56038;46.080;11.116;2023-03-12T02:55:46;98490.97;;;10.40;54.30
68988;BME280;56038;46.080;11.116;2023-03-12T03:00:48;98493.53;;;10.42;54.16
68988;BME280;56038;46.080;11.116;2023-03-12T03:05:50;98504.72;;;10.44;53.93
68988;BME280;56038;46.080;11.116;2023-03-12T03:10:54;98508.19;;;10.44;54.43
68988;BME280;56038;46.080;11.116;2023-03-12T03:15:56;98513.56;;;10.41;54.05
68988;BME280;56038;46.080;11.116;2023-03-12T03:21:00;98526.53;;;10.43;53.91
68988;BME280;56038;46.080;11.116;2023-03-12T03:26:03;98535.13;;;10.45;52.84
68988;BME280;56038;46.080;11.116;2023-03-12T03:31:05;98545.75;;;10.42;52.42
68988;BME280;56038;46.080;11.116;2023-03-12T03:36:08;98554.56;;;10.39;52.25
68988;BME280;56038;46.080;11.116;2023-03-12T03:41:12;98560.88;;;10.35;52.67
68988;BME280;56038;46.080;11.116;2023-03-12T03:46:14;98577.28;;;10.37;53.05
68988;BME280;56038;46.080;11.116;2023-03-12T03:51:16;98580.06;;;10.34;52.69
68988;BME280;56038;46.080;11.116;2023-03-12T03:56:19;98583.84;;;10.29;52.87
68988;BME280;56038;46.080;11.116;2023-03-12T04:01:23;98599.19;;;10.35;52.13
68988;BME280;56038;46.080;11.116;2023-03-12T04:06:24;98606.56;;;10.44;51.20
68988;BME280;56038;46.080;11.116;2023-03-12T04:11:28;98610.38;;;10.37;50.71
68988;BME280;56038;46.080;11.116;2023-03-12T04:16:30;98619.91;;;10.38;50.55
68988;BME280;56038;46.080;11.116;2023-03-12T04:21:31;98621.59;;;10.39;50.62
68988;BME280;56038;46.080;11.116;2023-03-12T04:26:34;98631.28;;;10.37;50.13
68988;BME280;56038;46.080;11.116;2023-03-12T04:31:36;98632.34;;;10.33;49.71
68988;BME280;56038;46.080;11.116;2023-03-12T04:36:38;98643.31;;;10.39;49.78
68988;BME280;56038;46.080;11.116;2023-03-12T04:41:41;98644.25;;;10.38;50.01
68988;BME280;56038;46.080;11.116;2023-03-12T04:46:43;98654.41;;;10.44;49.25
68988;BME280;56038;46.080;11.116;2023-03-12T04:51:45;98655.91;;;10.48;48.93
68988;BME280;56038;46.080;11.116;2023-03-12T04:56:48;98669.97;;;10.46;49.13
68988;BME280;56038;46.080;11.116;2023-03-12T05:01:50;98674.28;;;10.47;48.97
68988;BME280;56038;46.080;11.116;2023-03-12T05:06:52;98679.50;;;10.47;49.10
68988;BME280;56038;46.080;11.116;2023-03-12T05:11:55;98680.84;;;10.54;48.74
68988;BME280;56038;46.080;11.116;2023-03-12T05:16:56;98689.38;;;10.40;48.34
68988;BME280;56038;46.080;11.116;2023-03-12T05:21:58;98700.66;;;10.41;48.82
68988;BME280;56038;46.080;11.116;2023-03-12T05:27:01;98709.97;;;10.46;48.82
68988;BME280;56038;46.080;11.116;2023-03-12T05:32:04;98722.72;;;10.35;48.43
68988;BME280;56038;46.080;11.116;2023-03-12T05:37:06;98730.78;;;10.31;48.40
68988;BME280;56038;46.080;11.116;2023-03-12T05:42:09;98731.63;;;10.31;48.57
68988;BME280;56038;46.080;11.116;2023-03-12T05:47:11;98737.38;;;10.38;48.74
68988;BME280;56038;46.080;11.116;2023-03-12T05:52:13;98747.38;;;10.47;48.35
68988;BME280;56038;46.080;11.116;2023-03-12T05:57:16;98758.25;;;10.38;48.27
68988;BME280;56038;46.080;11.116;2023-03-12T06:02:18;98773.09;;;10.37;49.06
68988;BME280;56038;46.080;11.116;2023-03-12T06:07:20;98775.84;;;10.34;48.50
68988;BME280;56038;46.080;11.116;2023-03-12T06:12:23;98782.69;;;10.37;48.79
68988;BME280;56038;46.080;11.116;2023-03-12T06:17:25;98785.53;;;10.32;49.31
68988;BME280;56038;46.080;11.116;2023-03-12T06:22:28;98794.63;;;10.24;49.32
68988;BME280;56038;46.080;11.116;2023-03-12T06:27:32;98806.09;;;10.19;49.71
68988;BME280;56038;46.080;11.116;2023-03-12T06:32:33;98808.38;;;10.08;49.83
68988;BME280;56038;46.080;11.116;2023-03-12T06:37:35;98807.34;;;10.12;49.86
68988;BME280;56038;46.080;11.116;2023-03-12T06:42:39;98818.13;;;10.24;50.00
68988;BME280;56038;46.080;11.116;2023-03-12T06:47:40;98833.34;;;10.33;49.44
68988;BME280;56038;46.080;11.116;2023-03-12T06:52:42;98841.81;;;10.38;48.90
68988;BME280;56038;46.080;11.116;2023-03-12T06:57:45;98838.91;;;10.44;48.58
68988;BME280;56038;46.080;11.116;2023-03-12T07:02:47;98845.84;;;10.45;49.12
68988;BME280;56038;46.080;11.116;2023-03-12T07:07:49;98857.59;;;10.54;48.26
68988;BME280;56038;46.080;11.116;2023-03-12T07:12:52;98871.47;;;10.54;48.45
68988;BME280;56038;46.080;11.116;2023-03-12T07:17:58;98875.78;;;10.55;48.98
68988;BME280;56038;46.080;11.116;2023-03-12T07:23:00;98889.75;;;10.54;48.81
68988;BME280;56038;46.080;11.116;2023-03-12T07:28:04;98886.69;;;10.46;49.05
68988;BME280;56038;46.080;11.116;2023-03-12T07:33:08;98892.19;;;10.40;48.52
68988;BME280;56038;46.080;11.116;2023-03-12T07:38:10;98889.00;;;10.52;48.99
68988;BME280;56038;46.080;11.116;2023-03-12T07:43:13;98900.47;;;10.67;48.49
68988;BME280;56038;46.080;11.116;2023-03-12T07:48:15;98908.09;;;10.71;48.82
68988;BME280;56038;46.080;11.116;2023-03-12T07:53:19;98916.88;;;10.88;48.07
68988;BME280;56038;46.080;11.116;2023-03-12T07:58:22;98919.81;;;10.99;47.22
68988;BME280;56038;46.080;11.116;2023-03-12T08:03:23;98918.53;;;11.07;47.63
68988;BME280;56038;46.080;11.116;2023-03-12T08:08:26;98913.31;;;11.25;47.01
68988;BME280;56038;46.080;11.116;2023-03-12T08:13:30;98928.44;;;11.18;46.71
68988;BME280;56038;46.080;11.116;2023-03-12T08:18:31;98930.69;;;11.26;46.61
68988;BME280;56038;46.080;11.116;2023-03-12T08:23:33;98930.84;;;11.40;46.91
68988;BME280;56038;46.080;11.116;2023-03-12T08:28:36;98918.47;;;11.94;45.32
68988;BME280;56038;46.080;11.116;2023-03-12T08:33:38;98919.28;;;12.43;44.47
68988;BME280;56038;46.080;11.116;2023-03-12T08:38:42;98924.53;;;12.75;43.94
68988;BME280;56038;46.080;11.116;2023-03-12T08:43:45;98921.88;;;12.90;43.64
68988;BME280;56038;46.080;11.116;2023-03-12T08:48:47;98926.56;;;13.15;43.47
68988;BME280;56038;46.080;11.116;2023-03-12T08:53:49;98918.97;;;13.41;43.16
68988;BME280;56038;46.080;11.116;2023-03-12T08:58:52;98922.47;;;13.56;43.44
68988;BME280;56038;46.080;11.116;2023-03-12T09:03:54;98912.59;;;13.89;43.00
68988;BME280;56038;46.080;11.116;2023-03-12T09:08:56;98911.28;;;14.25;42.80
68988;BME280;56038;46.080;11.116;2023-03-12T09:14:01;98911.28;;;14.66;42.63
68988;BME280;56038;46.080;11.116;2023-03-12T09:19:03;98904.41;;;14.78;43.54
68988;BME280;56038;46.080;11.116;2023-03-12T09:24:05;98908.63;;;14.80;44.50
68988;BME280;56038;46.080;11.116;2023-03-12T09:29:08;98905.22;;;15.32;43.60
68988;BME280;56038;46.080;11.116;2023-03-12T09:34:10;98913.34;;;16.05;42.80
68988;BME280;56038;46.080;11.116;2023-03-12T09:39:11;98899.47;;;16.40;42.35
68988;BME280;56038;46.080;11.116;2023-03-12T09:44:19;98904.78;;;16.76;41.70
68988;BME280;56038;46.080;11.116;2023-03-12T09:49:30;98905.38;;;17.04;40.97
68988;BME280;56038;46.080;11.116;2023-03-12T09:54:39;98895.16;;;17.34;39.72
68988;BME280;56038;46.080;11.116;2023-03-12T09:59:46;98895.28;;;17.22;40.13
68988;BME280;56038;46.080;11.116;2023-03-12T10:04:50;98886.53;;;17.79;39.33
68988;BME280;56038;46.080;11.116;2023-03-12T10:10:15;98894.97;;;18.17;37.33
68988;BME280;56038;46.080;11.116;2023-03-12T10:15:33;98886.91;;;17.96;36.46
68988;BME280;56038;46.080;11.116;2023-03-12T10:20:52;98889.53;;;18.08;37.16
68988;BME280;56038;46.080;11.116;2023-03-12T10:26:03;98885.19;;;18.29;37.65
68988;BME280;56038;46.080;11.116;2023-03-12T10:31:13;98885.78;;;18.98;35.84
68988;BME280;56038;46.080;11.116;2023-03-12T10:36:19;98886.34;;;19.34;36.04
68988;BME280;56038;46.080;11.116;2023-03-12T10:41:25;98881.38;;;20.13;35.19
68988;BME280;56038;46.080;11.116;2023-03-12T10:46:45;98884.53;;;21.16;32.47
68988;BME280;56038;46.080;11.116;2023-03-12T10:51:57;98894.03;;;21.09;33.04
68988;BME280;56038;46.080;11.116;2023-03-12T10:56:59;98886.63;;;21.41;33.39
68988;BME280;56038;46.080;11.116;2023-03-12T11:02:28;98903.84;;;21.47;31.05
68988;BME280;56038;46.080;11.116;2023-03-12T11:07:31;98896.09;;;22.20;31.77
68988;BME280;56038;46.080;11.116;2023-03-12T11:12:36;98894.81;;;22.51;31.32
68988;BME280;56038;46.080;11.116;2023-03-12T11:17:40;98901.78;;;22.25;30.62
68988;BME280;56038;46.080;11.116;2023-03-12T11:22:42;98899.28;;;22.51;28.78
68988;BME280;56038;46.080;11.116;2023-03-12T11:27:48;98895.44;;;22.35;29.94
68988;BME280;56038;46.080;11.116;2023-03-12T11:32:52;98888.00;;;22.66;29.57
68988;BME280;56038;46.080;11.116;2023-03-12T11:38:00;98893.47;;;22.37;28.84
68988;BME280;56038;46.080;11.116;2023-03-12T11:43:17;98883.81;;;21.62;27.67
68988;BME280;56038;46.080;11.116;2023-03-12T11:48:24;98889.00;;;22.10;28.96
68988;BME280;56038;46.080;11.116;2023-03-12T11:59:09;98891.13;;;21.97;27.09
68988;BME280;56038;46.080;11.116;2023-03-12T12:04:31;98883.25;;;22.42;26.20
68988;BME280;56038;46.080;11.116;2023-03-12T12:09:42;98883.88;;;22.99;27.13
68988;BME280;56038;46.080;11.116;2023-03-12T12:14:59;98867.31;;;23.31;25.00
68988;BME280;56038;46.080;11.116;2023-03-12T12:20:16;98886.06;;;21.28;27.51
68988;BME280;56038;46.080;11.116;2023-03-12T12:25:24;98886.31;;;21.64;27.33
68988;BME280;56038;46.080;11.116;2023-03-12T12:30:35;98867.31;;;22.60;26.41
68988;BME280;56038;46.080;11.116;2023-03-12T12:35:42;98868.44;;;22.58;26.46
68988;BME280;56038;46.080;11.116;2023-03-12T12:40:48;98855.63;;;23.68;25.47
68988;BME280;56038;46.080;11.116;2023-03-12T12:45:52;98848.81;;;24.34;24.63
68988;BME280;56038;46.080;11.116;2023-03-12T12:50:58;98847.63;;;23.24;25.48
68988;BME280;56038;46.080;11.116;2023-03-12T12:56:06;98845.78;;;23.25;25.82
68988;BME280;56038;46.080;11.116;2023-03-12T13:01:10;98846.84;;;22.79;26.44
68988;BME280;56038;46.080;11.116;2023-03-12T13:06:14;98837.50;;;21.65;27.04
68988;BME280;56038;46.080;11.116;2023-03-12T13:11:24;98848.56;;;21.97;27.26
68988;BME280;56038;46.080;11.116;2023-03-12T13:16:31;98849.22;;;22.09;27.08
68988;BME280;56038;46.080;11.116;2023-03-12T13:21:38;98851.13;;;23.25;25.79
68988;BME280;56038;46.080;11.116;2023-03-12T13:26:50;98839.66;;;23.76;24.73
68988;BME280;56038;46.080;11.116;2023-03-12T13:31:54;98845.44;;;22.84;25.95
68988;BME280;56038;46.080;11.116;2023-03-12T13:36:59;98834.75;;;22.66;25.78
68988;BME280;56038;46.080;11.116;2023-03-12T13:42:25;98849.28;;;23.25;25.81
68988;BME280;56038;46.080;11.116;2023-03-12T13:47:29;98848.44;;;22.71;26.80
68988;BME280;56038;46.080;11.116;2023-03-12T13:52:39;98856.28;;;20.96;27.79
68988;BME280;56038;46.080;11.116;2023-03-12T13:57:44;98864.56;;;19.51;29.99
68988;BME280;56038;46.080;11.116;2023-03-12T14:02:48;98864.06;;;19.36;30.47
68988;BME280;56038;46.080;11.116;2023-03-12T14:08:10;98861.00;;;18.99;30.77
68988;BME280;56038;46.080;11.116;2023-03-12T14:13:27;98871.72;;;18.66;31.41
68988;BME280;56038;46.080;11.116;2023-03-12T14:18:33;98861.69;;;18.80;31.13
68988;BME280;56038;46.080;11.116;2023-03-12T14:23:38;98855.84;;;18.43;31.99
68988;BME280;56038;46.080;11.116;2023-03-12T14:28:41;98858.28;;;18.13;32.34
68988;BME280;56038;46.080;11.116;2023-03-12T14:33:49;98872.13;;;17.25;33.71
68988;BME280;56038;46.080;11.116;2023-03-12T14:38:58;98869.47;;;17.25;33.69
68988;BME280;56038;46.080;11.116;2023-03-12T14:44:21;98888.00;;;16.77;34.50
68988;BME280;56038;46.080;11.116;2023-03-12T14:49:23;98902.53;;;16.46;35.23
68988;BME280;56038;46.080;11.116;2023-03-12T14:54:26;98904.16;;;16.24;35.28
68988;BME280;56038;46.080;11.116;2023-03-12T14:59:30;98897.66;;;16.16;35.95
68988;BME280;56038;46.080;11.116;2023-03-12T15:04:32;98898.16;;;16.22;35.55
68988;BME280;56038;46.080;11.116;2023-03-12T15:09:36;98888.66;;;16.32;35.69
68988;BME280;56038;46.080;11.116;2023-03-12T15:14:39;98893.25;;;16.41;35.71
68988;BME280;56038;46.080;11.116;2023-03-12T15:19:42;98886.34;;;16.27;35.58
68988;BME280;56038;46.080;11.116;2023-03-12T15:24:46;98888.34;;;16.24;35.82
68988;BME280;56038;46.080;11.116;2023-03-12T15:29:48;98896.06;;;16.27;35.57
68988;BME280;56038;46.080;11.116;2023-03-12T15:34:50;98902.06;;;16.16;36.10
68988;BME280;56038;46.080;11.116;2023-03-12T15:39:54;98908.09;;;16.05;36.38
68988;BME280;56038;46.080;11.116;2023-03-12T15:44:58;98903.16;;;15.88;36.94
68988;BME280;56038;46.080;11.116;2023-03-12T15:50:06;98899.06;;;15.84;36.91
68988;BME280;56038;46.080;11.116;2023-03-12T15:55:23;98900.38;;;15.51;37.57
68988;BME280;56038;46.080;11.116;2023-03-12T16:00:29;98905.94;;;15.34;37.90
68988;BME280;56038;46.080;11.116;2023-03-12T16:05:34;98907.78;;;15.07;38.88
68988;BME280;56038;46.080;11.116;2023-03-12T16:10:39;98913.78;;;14.82;39.29
68988;BME280;56038;46.080;11.116;2023-03-12T16:15:41;98920.50;;;14.73;39.17
68988;BME280;56038;46.080;11.116;2023-03-12T16:20:44;98943.34;;;14.58;39.75
68988;BME280;56038;46.080;11.116;2023-03-12T16:25:49;98950.69;;;14.53;40.27
68988;BME280;56038;46.080;11.116;2023-03-12T16:30:52;98956.75;;;14.39;40.24
68988;BME280;56038;46.080;11.116;2023-03-12T16:35:54;98967.63;;;14.33;40.78
68988;BME280;56038;46.080;11.116;2023-03-12T16:40:57;98966.44;;;14.25;40.32
68988;BME280;56038;46.080;11.116;2023-03-12T16:45:59;98987.34;;;14.12;41.42
68988;BME280;56038;46.080;11.116;2023-03-12T16:51:01;98992.59;;;13.98;41.57
68988;BME280;56038;46.080;11.116;2023-03-12T16:56:05;98999.50;;;13.85;41.50
68988;BME280;56038;46.080;11.116;2023-03-12T17:01:10;99022.28;;;13.84;41.58
68988;BME280;56038;46.080;11.116;2023-03-12T17:06:15;99035.41;;;13.84;41.16
68988;BME280;56038;46.080;11.116;2023-03-12T17:11:21;99032.50;;;13.74;41.82
68988;BME280;56038;46.080;11.116;2023-03-12T17:16:23;99038.28;;;13.65;43.12
68988;BME280;56038;46.080;11.116;2023-03-12T17:21:25;99043.59;;;13.64;41.63
68988;BME280;56038;46.080;11.116;2023-03-12T17:26:28;99059.53;;;13.61;41.53
68988;BME280;56038;46.080;11.116;2023-03-12T17:31:30;99084.84;;;13.62;42.10
68988;BME280;56038;46.080;11.116;2023-03-12T17:36:34;99110.44;;;13.42;42.77
68988;BME280;56038;46.080;11.116;2023-03-12T17:41:38;99116.00;;;13.21;43.23
68988;BME280;56038;46.080;11.116;2023-03-12T17:46:40;99124.97;;;13.16;43.47
68988;BME280;56038;46.080;11.116;2023-03-12T17:51:42;99130.59;;;13.09;43.26
68988;BME280;56038;46.080;11.116;2023-03-12T17:56:46;99148.38;;;13.04;43.26
68988;BME280;56038;46.080;11.116;2023-03-12T18:01:48;99169.34;;;13.04;43.36
68988;BME280;56038;46.080;11.116;2023-03-12T18:06:49;99176.88;;;12.94;43.54
68988;BME280;56038;46.080;11.116;2023-03-12T18:11:53;99186.66;;;12.90;43.66
68988;BME280;56038;46.080;11.116;2023-03-12T18:16:54;99192.81;;;12.89;43.83
68988;BME280;56038;46.080;11.116;2023-03-12T18:21:56;99199.25;;;12.84;43.68
68988;BME280;56038;46.080;11.116;2023-03-12T18:26:59;99212.66;;;12.78;43.98
68988;BME280;56038;46.080;11.116;2023-03-12T18:32:01;99210.72;;;12.81;43.76
68988;BME280;56038;46.080;11.116;2023-03-12T18:37:03;99216.44;;;12.72;44.36
68988;BME280;56038;46.080;11.116;2023-03-12T18:42:07;99228.00;;;12.68;44.28
68988;BME280;56038;46.080;11.116;2023-03-12T18:47:08;99221.09;;;12.50;45.12
68988;BME280;56038;46.080;11.116;2023-03-12T18:52:10;99224.91;;;12.43;45.12
68988;BME280;56038;46.080;11.116;2023-03-12T18:57:13;99231.25;;;12.39;46.43
68988;BME280;56038;46.080;11.116;2023-03-12T19:02:15;99244.50;;;12.36;45.39
68988;BME280;56038;46.080;11.116;2023-03-12T19:07:17;99253.66;;;12.27;45.71
68988;BME280;56038;46.080;11.116;2023-03-12T19:12:20;99257.25;;;12.24;45.76
68988;BME280;56038;46.080;11.116;2023-03-12T19:17:22;99259.81;;;12.26;45.68
68988;BME280;56038;46.080;11.116;2023-03-12T19:22:24;99274.22;;;12.17;45.85
68988;BME280;56038;46.080;11.116;2023-03-12T19:27:27;99274.72;;;12.07;46.46
68988;BME280;56038;46.080;11.116;2023-03-12T19:32:29;99298.06;;;12.11;46.00
68988;BME280;56038;46.080;11.116;2023-03-12T19:37:30;99311.06;;;12.13;46.36
68988;BME280;56038;46.080;11.116;2023-03-12T19:42:34;99320.56;;;11.96;47.85
68988;BME280;56038;46.080;11.116;2023-03-12T19:47:36;99324.94;;;11.96;46.68
68988;BME280;56038;46.080;11.116;2023-03-12T19:52:37;99336.06;;;12.01;46.28
68988;BME280;56038;46.080;11.116;2023-03-12T19:57:41;99337.03;;;11.98;46.70
68988;BME280;56038;46.080;11.116;2023-03-12T20:02:43;99346.81;;;11.95;46.43
68988;BME280;56038;46.080;11.116;2023-03-12T20:07:46;99353.41;;;11.85;47.85
68988;BME280;56038;46.080;11.116;2023-03-12T20:12:49;99372.88;;;11.78;47.25
68988;BME280;56038;46.080;11.116;2023-03-12T20:17:51;99375.69;;;11.73;47.09
68988;BME280;56038;46.080;11.116;2023-03-12T20:22:56;99369.88;;;11.66;47.73
68988;BME280;56038;46.080;11.116;2023-03-12T20:28:00;99378.38;;;11.53;48.23
68988;BME280;56038;46.080;11.116;2023-03-12T20:33:03;99379.78;;;11.60;47.66
68988;BME280;56038;46.080;11.116;2023-03-12T20:38:05;99368.00;;;11.50;48.05
68988;BME280;56038;46.080;11.116;2023-03-12T20:43:08;99370.38;;;11.35;48.75
68988;BME280;56038;46.080;11.116;2023-03-12T20:48:11;99364.63;;;11.27;48.85
68988;BME280;56038;46.080;11.116;2023-03-12T20:53:12;99372.69;;;11.23;48.60
68988;BME280;56038;46.080;11.116;2023-03-12T20:58:16;99374.13;;;11.09;49.43
68988;BME280;56038;46.080;11.116;2023-03-12T21:03:17;99379.63;;;10.82;50.29
68988;BME280;56038;46.080;11.116;2023-03-12T21:08:19;99389.44;;;10.76;49.99
68988;BME280;56038;46.080;11.116;2023-03-12T21:13:22;99389.56;;;10.73;50.51
68988;BME280;56038;46.080;11.116;2023-03-12T21:18:25;99413.09;;;10.72;49.96
68988;BME280;56038;46.080;11.116;2023-03-12T21:23:28;99423.13;;;10.83;49.97
68988;BME280;56038;46.080;11.116;2023-03-12T21:28:32;99419.69;;;10.82;50.06
68988;BME280;56038;46.080;11.116;2023-03-12T21:33:34;99446.84;;;10.78;50.18
68988;BME280;56038;46.080;11.116;2023-03-12T21:38:37;99448.19;;;10.66;50.59
68988;BME280;56038;46.080;11.116;2023-03-12T21:43:40;99451.63;;;10.67;50.49
68988;BME280;56038;46.080;11.116;2023-03-12T21:48:43;99462.41;;;10.59;50.74
68988;BME280;56038;46.080;11.116;2023-03-12T21:53:46;99459.88;;;10.56;50.74
68988;BME280;56038;46.080;11.116;2023-03-12T21:58:49;99474.88;;;10.51;50.88
68988;BME280;56038;46.080;11.116;2023-03-12T22:03:50;99475.59;;;10.33;52.75
68988;BME280;56038;46.080;11.116;2023-03-12T22:08:52;99477.41;;;10.31;52.58
68988;BME280;56038;46.080;11.116;2023-03-12T22:13:56;99474.69;;;10.34;51.82
68988;BME280;56038;46.080;11.116;2023-03-12T22:18:58;99469.06;;;10.21;52.73
68988;BME280;56038;46.080;11.116;2023-03-12T22:24:00;99465.56;;;10.20;51.91
68988;BME280;56038;46.080;11.116;2023-03-12T22:29:03;99464.81;;;10.17;52.45
68988;BME280;56038;46.080;11.116;2023-03-12T22:34:06;99473.34;;;9.99;52.45
68988;BME280;56038;46.080;11.116;2023-03-12T22:39:08;99475.81;;;10.02;52.17
68988;BME280;56038;46.080;11.116;2023-03-12T22:44:11;99485.28;;;10.04;52.17
68988;BME280;56038;46.080;11.116;2023-03-12T22:49:13;99492.66;;;9.93;51.94
68988;BME280;56038;46.080;11.116;2023-03-12T22:54:15;99495.50;;;9.87;52.42
68988;BME280;56038;46.080;11.116;2023-03-12T22:59:19;99501.63;;;9.86;52.41
68988;BME280;56038;46.080;11.116;2023-03-12T23:04:21;99495.22;;;9.70;52.61
68988;BME280;56038;46.080;11.116;2023-03-12T23:09:22;99497.03;;;9.68;52.45
68988;BME280;56038;46.080;11.116;2023-03-12T23:14:25;99494.72;;;9.58;52.73
68988;BME280;56038;46.080;11.116;2023-03-12T23:19:30;99511.28;;;9.57;52.64
68988;BME280;56038;46.080;11.116;2023-03-12T23:24:32;99513.31;;;9.49;52.70
68988;BME280;56038;46.080;11.116;2023-03-12T23:29:35;99502.44;;;9.37;53.00
68988;BME280;56038;46.080;11.116;2023-03-12T23:34:37;99503.09;;;9.17;53.54
68988;BME280;56038;46.080;11.116;2023-03-12T23:39:39;99513.38;;;9.21;53.29
68988;BME280;56038;46.080;11.116;2023-03-12T23:44:42;99513.03;;;9.30;53.18
68988;BME280;56038;46.080;11.116;2023-03-12T23:49:44;99523.56;;;9.27;53.14
68988;BME280;56038;46.080;11.116;2023-03-12T23:54:45;99505.50;;;9.23;53.31
68988;BME280;56038;46.080;11.116;2023-03-12T23:59:49;99509.84;;;9.22;53.69
